ENVA Airport Information

Runway Information
Runway 09 Length 9052 ft width 148 ft
Elevation 17 ft Threshold 830 ft Heading 90
Runway 27 Length 9052 ft Width 148 ft
Elevation 56 ft Threshold 459 ft Heading 270
Runway 13 Length 4771 ft width 118 ft
Elevation 30 ft Threshold 412 ft Heading 134
Runway 31 Length 4771 ft Width 118 ft
Elevation 54 ft Threshold 962 ft Heading 314
Runway 14 Length 3117 ft width 118 ft
Elevation 30 ft Threshold 0 ft Heading 134
Runway 32 Length 3117 ft Width 118 ft
Elevation 54 ft Threshold 0 ft Heading 314
Airport Frequencies
Type APP Name APP Frequency 118.6 MHZ
Type ATIS Name ATIS Frequency 127.55 MHZ
Type GND Name Værnes gro Frequency 121.6 MHZ
Type TWR Name TWR Frequency 119.4 MHZ
Airport Navaids
Type NDB Name Flornes Frequency 380 KHZ
Type NDB Name Grakallen Frequency 358 KHZ
Type VOR-DME Name Trondheim Frequency 112500 KHZ
Type TACAN Name Vaernes Frequency 109600 KHZ
Airport Weather Information & NOTAM
Deprecated: The each() function is deprecated. This message will be suppressed on further calls in /storage/content/79/1005879/virtualnac.org/public_html/v2/lib/functions.php on line 154 ADDS - METARS form results

(1049 UTC 17 April 2021)
Data provider http://aviationweather.gov/metar/data/
 
METAR text: ENVA 171020Z 26008KT CAVOK 07/M00 Q1034 NOSIG RMK WIND 670FT VRB02KT
Conditions at: ENVA (TRONDHEIM/VAERNE, NO) observed 1020 UTC 17 April 2021
Temperature: 7.0°C (45°F)
Dewpoint: 0.0°C (32°F) [RH = 61%]
Pressure (altimeter): 30.53 inches Hg (1034.0 mb)
Winds: from the W (260 degrees) at 9 MPH (8 knots; 4.1 m/s)
Visibility: 6 or more miles (10+ km)
Ceiling: ceiling and visibility are OK
Clouds: unknown
Weather: no significant weather observed at this time

METAR text: ENVA 170950Z 26009KT CAVOK 07/01 Q1034 NOSIG RMK WIND 670FT 35004KT
Conditions at: ENVA (TRONDHEIM/VAERNE, NO) observed 0950 UTC 17 April 2021
Temperature: 7.0°C (45°F)
Dewpoint: 1.0°C (34°F) [RH = 66%]
Pressure (altimeter): 30.53 inches Hg (1034.0 mb)
Winds: from the W (260 degrees) at 10 MPH (9 knots; 4.6 m/s)
Visibility: 6 or more miles (10+ km)
Ceiling: ceiling and visibility are OK
Clouds: unknown
Weather: no significant weather observed at this time

Forecast for: ENVA (TRONDHEIM/VAERNE, NO)
Text: TAF ENVA 1706/1806 11008KT CAVOK
Forecast period: 0600 UTC 17 April 2021 to 0600 UTC 18 April 2021
Forecast type: FROM: standard forecast or significant change
Winds: from the ESE (110 degrees) at 9 MPH (8 knots; 4.1 m/s)
Visibility: 6 or more miles (10+ km)
Ceiling: unknown
Clouds: missing
Weather: NSW  (no significant weather)
Text: PROB30 1711/1716 26010KT
Forecast period: 1100 to 1600 UTC 17 April 2021
Forecast type: PROBABLE: 30 percent likelihood of the following during this time
Winds: from the W (260 degrees) at 12 MPH (10 knots; 5.1 m/s)
Visibility: missing
Ceiling: unknown
Clouds: missing
Weather: no significant weather forecast for this period